MSC Leanne — 3EXH3 — position and weather

sailwx.info

Track history (hours):
 
Tides and Currents Weather Stations Pressure Air Temp Water Temp Dewpoint Dewpoint Depression Visibility Wind Speed Wind Dir Waves Ship Positions

MSC Leanne

Last reported at 2016-Jun-15 01:31 UTC. Time now 2016-Jun-27 07:52 UTC.
Position N 31°23' E 032°23'.
Warning: this ship's position is 12 days out of date.

Length 294 m; draft 13.6 m.

Type: Ship (hazmat cat A). MMSI: 357723000.

Date/timePositionNaut miles runAvg speedWind from/ knotsBaromVisibWave heightAir tempDewpointWater temp
2016-Jun-15 01:31N 31°23' E 032°23'4 3.9
2016-Jun-15 00:32N 31°25' E 032°19'0 0.1
2016-Jun-14 23:14N 31°25' E 032°19'0 0.0
2016-Jun-14 21:24N 31°25' E 032°19'5 5.2
2016-Jun-14 20:31N 31°28' E 032°16'1313.8
2016-Jun-14 19:34N 31°38' E 032°05'1413.7
2016-Jun-14 18:34N 31°47' E 031°54'1515.2
2016-Jun-14 17:34N 31°53' E 031°37'1717.4
2016-Jun-14 16:33N 32°00' E 031°18'1817.5
2016-Jun-14 15:33N 32°07' E 030°59'1717.4
2016-Jun-14 14:34N 32°14' E 030°40'1717.3
2016-Jun-14 13:34N 32°21' E 030°22'1817.5
2016-Jun-14 12:34N 32°28' E 030°03'1817.6
2016-Jun-14 11:33N 32°36' E 029°44'1717.5
2016-Jun-14 10:33N 32°43' E 029°25'1817.7
2016-Jun-14 09:33N 32°50' E 029°06'2019.6
2016-Jun-14 08:33N 32°58' E 028°44'2119.8
2016-Jun-14 07:31N 33°06' E 028°22'6020.2
2016-Jun-14 04:33N 33°30' E 027°16'59419.7
2016-Jun-12 22:27N 37°39' E 016°13'1819.3
2016-Jun-12 21:32N 37°47' E 015°53'1818.2
2016-Jun-12 20:33N 37°55' E 015°34'1716.9
2016-Jun-12 19:33N 38°12' E 015°35'1313.4
2016-Jun-12 18:33N 38°23' E 015°46'8 8.2
2016-Jun-12 17:33N 38°27' E 015°54'0 0.0
2016-Jun-12 16:30N 38°27' E 015°54'0 0.0
2016-Jun-12 15:24N 38°27' E 015°54'0 0.0
2016-Jun-12 14:30N 38°27' E 015°54'0 0.0
2016-Jun-12 13:30N 38°27' E 015°54'0 0.0
2016-Jun-12 12:30N 38°27' E 015°54'0 0.0
2016-Jun-12 11:30N 38°27' E 015°54'0 0.0
2016-Jun-12 10:30N 38°27' E 015°54'0 0.0
2016-Jun-12 09:30N 38°27' E 015°54'0 0.0
2016-Jun-12 08:12N 38°27' E 015°54'0 0.0
2016-Jun-12 04:30N 38°27' E 015°54'0 0.0
2016-Jun-12 00:18N 38°27' E 015°54'0 0.0
2016-Jun-11 23:12N 38°27' E 015°54'0 0.0
2016-Jun-11 22:30N 38°27' E 015°54'0 0.0
2016-Jun-11 20:24N 38°27' E 015°54'1 1.0
2016-Jun-11 19:33N 38°27' E 015°54'10 8.4
2016-Jun-11 18:19N 38°28' E 015°41'1 0.7
2016-Jun-11 17:33N 38°27' E 015°40'4 4.1
2016-Jun-11 16:33N 38°27' E 015°46'2 1.5
2016-Jun-11 15:33N 38°27' E 015°44'1 1.0
2016-Jun-11 14:33N 38°27' E 015°43'1 0.9
2016-Jun-11 13:33N 38°27' E 015°42'6 6.3
2016-Jun-11 12:33N 38°26' E 015°50'3 3.1
2016-Jun-11 11:33N 38°27' E 015°46'1 0.8
2016-Jun-11 10:33N 38°27' E 015°47'4 3.8
2016-Jun-11 09:33N 38°27' E 015°51'3 3.4
2016-Jun-11 08:33N 38°28' E 015°47'1918.9
2016-Jun-11 07:33N 38°43' E 015°34'2120.8
2016-Jun-11 06:33N 39°01' E 015°20'2221.0
2016-Jun-11 05:30N 39°20' E 015°05'7021.0
2016-Jun-11 02:11N 40°18' E 014°16'1320.6
2016-Jun-11 01:33N 40°30' E 014°07'1716.8
2016-Jun-11 00:33N 40°45' E 014°15'5 5.0
2016-Jun-10 23:31N 40°50' E 014°17'0 0.0
2016-Jun-10 22:31N 40°50' E 014°17'0 0.0
2016-Jun-10 21:31N 40°50' E 014°17'0 0.0
2016-Jun-10 20:31N 40°50' E 014°17'0 0.0
2016-Jun-10 19:31N 40°50' E 014°17'0 0.0
2016-Jun-10 18:31N 40°50' E 014°17'0 0.0
2016-Jun-10 17:25N 40°50' E 014°17'0 0.0
2016-Jun-10 16:31N 40°50' E 014°17'0 0.0
2016-Jun-10 15:31N 40°50' E 014°17'0 0.0
2016-Jun-10 14:31N 40°50' E 014°17'0 0.0
2016-Jun-10 13:31N 40°50' E 014°17'0 0.0
2016-Jun-10 12:31N 40°50' E 014°17'0 0.0
2016-Jun-10 11:31N 40°50' E 014°17'0 0.0
2016-Jun-10 10:25N 40°50' E 014°17'0 0.0
2016-Jun-10 09:31N 40°50' E 014°17'0 0.1
2016-Jun-10 08:33N 40°50' E 014°17'3 2.9
2016-Jun-10 07:33N 40°47' E 014°17'2 2.1
2016-Jun-10 06:33N 40°46' E 014°15'1 0.7
2016-Jun-10 05:33N 40°45' E 014°15'9 9.0
2016-Jun-10 04:33N 40°38' E 014°07'24412.2
2016-Jun-09 08:33N 42°55' E 009°37'1515.2
2016-Jun-09 07:34N 43°05' E 009°22'1615.6
2016-Jun-09 06:33N 43°04' E 009°00'16015.4
2016-Jun-08 20:10N 43°03' E 005°21'1016.3
2016-Jun-08 19:33N 43°08' E 005°10'1514.9
2016-Jun-08 18:33N 43°20' E 004°58'8 7.5
2016-Jun-08 17:32N 43°25' E 004°50'0 0.0
2016-Jun-08 16:32N 43°25' E 004°50'0 0.0
2016-Jun-08 15:32N 43°25' E 004°50'0 0.0
2016-Jun-08 13:32N 43°25' E 004°50'0 0.0
2016-Jun-08 12:23N 43°25' E 004°50'0 0.0
2016-Jun-08 07:17N 43°25' E 004°50'0 0.0
2016-Jun-08 06:32N 43°25' E 004°50'0 0.0
2016-Jun-08 05:29N 43°25' E 004°50'0 0.0
2016-Jun-08 04:32N 43°25' E 004°50'0 0.0
2016-Jun-08 03:33N 43°25' E 004°50'1 1.4
2016-Jun-08 02:33N 43°24' E 004°52'9 9.2
2016-Jun-08 01:33N 43°17' E 005°00'8 8.2
2016-Jun-08 00:33N 43°09' E 005°01'1410.6
2016-Jun-07 23:15N 42°58' E 004°50'910.3
2016-Jun-07 22:22N 42°50' E 004°43'4611.2
2016-Jun-07 18:19N 42°13' E 004°07'911.9
2016-Jun-07 17:33N 42°06' E 004°00'1111.4
2016-Jun-07 16:33N 41°56' E 003°52'1111.2
2016-Jun-07 15:33N 41°47' E 003°43'1111.0
2016-Jun-07 14:33N 41°38' E 003°34'2211.0
2016-Jun-07 12:32N 41°21' E 003°15'1111.1
2016-Jun-07 11:31N 41°13' E 003°05'1412.0
2016-Jun-07 10:21N 41°02' E 002°54'1315.8
2016-Jun-07 09:33N 40°52' E 002°44'1918.7
2016-Jun-07 08:33N 40°37' E 002°28'2019.9
2016-Jun-07 07:33N 40°21' E 002°13'2121.5
2016-Jun-07 06:33N 40°05' E 001°54'2120.8
2016-Jun-07 05:33N 39°49' E 001°37'2020.3
2016-Jun-07 04:33N 39°33' E 001°20'2120.2
2016-Jun-07 03:30N 39°16' E 001°03'1920.0
2016-Jun-07 02:33N 39°02' E 000°48'2119.9
2016-Jun-07 01:31N 38°45' E 000°31'1919.8
2016-Jun-07 00:33N 38°30' E 000°17'2020.2
2016-Jun-06 23:33N 38°13' E 000°03'2020.4
2016-Jun-06 22:33N 37°56' W 000°11'2120.8
2016-Jun-06 21:33N 37°39' W 000°26'2020.3
2016-Jun-06 20:33N 37°24' W 000°43'2020.0
2016-Jun-06 19:33N 37°11' W 001°02'2620.0
2016-Jun-06 18:16N 36°54' W 001°26'1419.8
2016-Jun-06 17:33N 36°45' W 001°39'2020.0
2016-Jun-06 16:33N 36°31' W 001°58'2020.0
2016-Jun-06 15:34N 36°21' W 002°20'2020.3
2016-Jun-06 14:34N 36°17' W 002°44'2120.5
2016-Jun-06 13:33N 36°13' W 003°09'10220.4
2016-Jun-06 08:33N 35°60' W 005°14'4421.0
2016-Jun-06 06:27N 35°53' W 006°08'7819.8
2016-Jun-06 02:32N 36°10' W 007°42'1919.6
2016-Jun-06 01:33N 36°14' W 008°05'2019.6
2016-Jun-06 00:33N 36°19' W 008°29'2020.0
2016-Jun-05 23:33N 36°23' W 008°53'2020.0
2016-Jun-05 22:33N 36°29' W 009°17'6219.1
2016-Jun-05 19:18N 37°27' W 009°45'1720.4
2016-Jun-05 18:27N 37°44' W 009°50'1920.3
2016-Jun-05 17:32N 38°02' W 009°55'2020.2
2016-Jun-05 16:33N 38°22' W 010°00'2020.2
2016-Jun-05 15:33N 38°41' W 010°06'2020.0
2016-Jun-05 14:33N 39°01' W 010°07'  
Track history (hours):
 
Tides and Currents Weather Stations Pressure Air Temp Water Temp Dewpoint Dewpoint Depression Visibility Wind Speed Wind Dir Waves Ship Positions

MSC Leanne

Last reported at 2016-Jun-15 01:31 UTC. Time now 2016-Jun-27 07:52 UTC.
Position N 31°23' E 032°23'.
Warning: this ship's position is 12 days out of date.

Length 294 m; draft 13.6 m.

Type: Ship (hazmat cat A). MMSI: 357723000.

Date/timePositionNaut miles runAvg speedWind from/ knotsBaromVisibWave heightAir tempDewpointWater temp
2016-Jun-15 01:31N 31°23' E 032°23'4 3.9
2016-Jun-15 00:32N 31°25' E 032°19'0 0.1
2016-Jun-14 23:14N 31°25' E 032°19'0 0.0
2016-Jun-14 21:24N 31°25' E 032°19'5 5.2
2016-Jun-14 20:31N 31°28' E 032°16'1313.8
2016-Jun-14 19:34N 31°38' E 032°05'1413.7
2016-Jun-14 18:34N 31°47' E 031°54'1515.2
2016-Jun-14 17:34N 31°53' E 031°37'1717.4
2016-Jun-14 16:33N 32°00' E 031°18'1817.5
2016-Jun-14 15:33N 32°07' E 030°59'1717.4
2016-Jun-14 14:34N 32°14' E 030°40'1717.3
2016-Jun-14 13:34N 32°21' E 030°22'1817.5
2016-Jun-14 12:34N 32°28' E 030°03'1817.6
2016-Jun-14 11:33N 32°36' E 029°44'1717.5
2016-Jun-14 10:33N 32°43' E 029°25'1817.7
2016-Jun-14 09:33N 32°50' E 029°06'2019.6
2016-Jun-14 08:33N 32°58' E 028°44'2119.8
2016-Jun-14 07:31N 33°06' E 028°22'6020.2
2016-Jun-14 04:33N 33°30' E 027°16'59419.7
2016-Jun-12 22:27N 37°39' E 016°13'1819.3
2016-Jun-12 21:32N 37°47' E 015°53'1818.2
2016-Jun-12 20:33N 37°55' E 015°34'1716.9
2016-Jun-12 19:33N 38°12' E 015°35'1313.4
2016-Jun-12 18:33N 38°23' E 015°46'8 8.2
2016-Jun-12 17:33N 38°27' E 015°54'0 0.0
2016-Jun-12 16:30N 38°27' E 015°54'0 0.0
2016-Jun-12 15:24N 38°27' E 015°54'0 0.0
2016-Jun-12 14:30N 38°27' E 015°54'0 0.0
2016-Jun-12 13:30N 38°27' E 015°54'0 0.0
2016-Jun-12 12:30N 38°27' E 015°54'0 0.0
2016-Jun-12 11:30N 38°27' E 015°54'0 0.0
2016-Jun-12 10:30N 38°27' E 015°54'0 0.0
2016-Jun-12 09:30N 38°27' E 015°54'0 0.0
2016-Jun-12 08:12N 38°27' E 015°54'0 0.0
2016-Jun-12 04:30N 38°27' E 015°54'0 0.0
2016-Jun-12 00:18N 38°27' E 015°54'0 0.0
2016-Jun-11 23:12N 38°27' E 015°54'0 0.0
2016-Jun-11 22:30N 38°27' E 015°54'0 0.0
2016-Jun-11 20:24N 38°27' E 015°54'1 1.0
2016-Jun-11 19:33N 38°27' E 015°54'10 8.4
2016-Jun-11 18:19N 38°28' E 015°41'1 0.7
2016-Jun-11 17:33N 38°27' E 015°40'4 4.1
2016-Jun-11 16:33N 38°27' E 015°46'2 1.5
2016-Jun-11 15:33N 38°27' E 015°44'1 1.0
2016-Jun-11 14:33N 38°27' E 015°43'1 0.9
2016-Jun-11 13:33N 38°27' E 015°42'6 6.3
2016-Jun-11 12:33N 38°26' E 015°50'3 3.1
2016-Jun-11 11:33N 38°27' E 015°46'1 0.8
2016-Jun-11 10:33N 38°27' E 015°47'4 3.8
2016-Jun-11 09:33N 38°27' E 015°51'3 3.4
2016-Jun-11 08:33N 38°28' E 015°47'1918.9
2016-Jun-11 07:33N 38°43' E 015°34'2120.8
2016-Jun-11 06:33N 39°01' E 015°20'2221.0
2016-Jun-11 05:30N 39°20' E 015°05'7021.0
2016-Jun-11 02:11N 40°18' E 014°16'1320.6
2016-Jun-11 01:33N 40°30' E 014°07'1716.8
2016-Jun-11 00:33N 40°45' E 014°15'5 5.0
2016-Jun-10 23:31N 40°50' E 014°17'0 0.0
2016-Jun-10 22:31N 40°50' E 014°17'0 0.0
2016-Jun-10 21:31N 40°50' E 014°17'0 0.0
2016-Jun-10 20:31N 40°50' E 014°17'0 0.0
2016-Jun-10 19:31N 40°50' E 014°17'0 0.0
2016-Jun-10 18:31N 40°50' E 014°17'0 0.0
2016-Jun-10 17:25N 40°50' E 014°17'0 0.0
2016-Jun-10 16:31N 40°50' E 014°17'0 0.0
2016-Jun-10 15:31N 40°50' E 014°17'0 0.0
2016-Jun-10 14:31N 40°50' E 014°17'0 0.0
2016-Jun-10 13:31N 40°50' E 014°17'0 0.0
2016-Jun-10 12:31N 40°50' E 014°17'0 0.0
2016-Jun-10 11:31N 40°50' E 014°17'0 0.0
2016-Jun-10 10:25N 40°50' E 014°17'0 0.0
2016-Jun-10 09:31N 40°50' E 014°17'0 0.1
2016-Jun-10 08:33N 40°50' E 014°17'3 2.9
2016-Jun-10 07:33N 40°47' E 014°17'2 2.1
2016-Jun-10 06:33N 40°46' E 014°15'1 0.7
2016-Jun-10 05:33N 40°45' E 014°15'9 9.0
2016-Jun-10 04:33N 40°38' E 014°07'24412.2
2016-Jun-09 08:33N 42°55' E 009°37'1515.2
2016-Jun-09 07:34N 43°05' E 009°22'1615.6
2016-Jun-09 06:33N 43°04' E 009°00'16015.4
2016-Jun-08 20:10N 43°03' E 005°21'1016.3
2016-Jun-08 19:33N 43°08' E 005°10'1514.9
2016-Jun-08 18:33N 43°20' E 004°58'8 7.5
2016-Jun-08 17:32N 43°25' E 004°50'0 0.0
2016-Jun-08 16:32N 43°25' E 004°50'0 0.0
2016-Jun-08 15:32N 43°25' E 004°50'0 0.0
2016-Jun-08 13:32N 43°25' E 004°50'0 0.0
2016-Jun-08 12:23N 43°25' E 004°50'0 0.0
2016-Jun-08 07:17N 43°25' E 004°50'0 0.0
2016-Jun-08 06:32N 43°25' E 004°50'0 0.0
2016-Jun-08 05:29N 43°25' E 004°50'0 0.0
2016-Jun-08 04:32N 43°25' E 004°50'0 0.0
2016-Jun-08 03:33N 43°25' E 004°50'1 1.4
2016-Jun-08 02:33N 43°24' E 004°52'9 9.2
2016-Jun-08 01:33N 43°17' E 005°00'8 8.2
2016-Jun-08 00:33N 43°09' E 005°01'1410.6
2016-Jun-07 23:15N 42°58' E 004°50'910.3
2016-Jun-07 22:22N 42°50' E 004°43'4611.2
2016-Jun-07 18:19N 42°13' E 004°07'911.9
2016-Jun-07 17:33N 42°06' E 004°00'1111.4
2016-Jun-07 16:33N 41°56' E 003°52'1111.2
2016-Jun-07 15:33N 41°47' E 003°43'1111.0
2016-Jun-07 14:33N 41°38' E 003°34'2211.0
2016-Jun-07 12:32N 41°21' E 003°15'1111.1
2016-Jun-07 11:31N 41°13' E 003°05'1412.0
2016-Jun-07 10:21N 41°02' E 002°54'1315.8
2016-Jun-07 09:33N 40°52' E 002°44'1918.7
2016-Jun-07 08:33N 40°37' E 002°28'2019.9
2016-Jun-07 07:33N 40°21' E 002°13'2121.5
2016-Jun-07 06:33N 40°05' E 001°54'2120.8
2016-Jun-07 05:33N 39°49' E 001°37'2020.3
2016-Jun-07 04:33N 39°33' E 001°20'2120.2
2016-Jun-07 03:30N 39°16' E 001°03'1920.0
2016-Jun-07 02:33N 39°02' E 000°48'2119.9
2016-Jun-07 01:31N 38°45' E 000°31'1919.8
2016-Jun-07 00:33N 38°30' E 000°17'2020.2
2016-Jun-06 23:33N 38°13' E 000°03'2020.4
2016-Jun-06 22:33N 37°56' W 000°11'2120.8
2016-Jun-06 21:33N 37°39' W 000°26'2020.3
2016-Jun-06 20:33N 37°24' W 000°43'2020.0
2016-Jun-06 19:33N 37°11' W 001°02'2620.0
2016-Jun-06 18:16N 36°54' W 001°26'1419.8
2016-Jun-06 17:33N 36°45' W 001°39'2020.0
2016-Jun-06 16:33N 36°31' W 001°58'2020.0
2016-Jun-06 15:34N 36°21' W 002°20'2020.3
2016-Jun-06 14:34N 36°17' W 002°44'2120.5
2016-Jun-06 13:33N 36°13' W 003°09'10220.4
2016-Jun-06 08:33N 35°60' W 005°14'4421.0
2016-Jun-06 06:27N 35°53' W 006°08'7819.8
2016-Jun-06 02:32N 36°10' W 007°42'1919.6
2016-Jun-06 01:33N 36°14' W 008°05'2019.6
2016-Jun-06 00:33N 36°19' W 008°29'2020.0
2016-Jun-05 23:33N 36°23' W 008°53'2020.0
2016-Jun-05 22:33N 36°29' W 009°17'6219.1
2016-Jun-05 19:18N 37°27' W 009°45'1720.4
2016-Jun-05 18:27N 37°44' W 009°50'1920.3
2016-Jun-05 17:32N 38°02' W 009°55'2020.2
2016-Jun-05 16:33N 38°22' W 010°00'2020.2
2016-Jun-05 15:33N 38°41' W 010°06'2020.0
2016-Jun-05 14:33N 39°01' W 010°07'  

Dump ship's entire track history